Time;durP1;ratioP1;P1;durP2;ratioP2;P2;SDS_P1;SDS_P2;PMS_P1;PMS_P2;Temp;Humidity;BMP_temperature;BMP_pressure;BME280_temperature;BME280_humidity;BME280_pressure;Samples;Min_cycle;Max_cycle;Signal;HPM_P1;HPM_P2
2023/10/28 03:23:59;;;;;;;1999.90;999.90;;;;;;;;;;5124457;23;20728;-66
2023/10/28 03:26:44;;;;;;;1999.90;999.90;;;;;;;;;;4961388;28;20751;-66
2023/10/28 03:29:29;;;;;;;1999.90;999.90;;;;;;;;;;4967618;28;20726;-66
2023/10/28 03:32:14;;;;;;;1999.90;999.90;;;;;;;;;;4972866;28;20223;-68
2023/10/28 03:34:59;;;;;;;1999.90;999.90;;;;;;;;;;4973277;28;20704;-67
2023/10/28 03:37:44;;;;;;;1999.90;999.90;;;;;;;;;;4970140;28;20236;-67
2023/10/28 03:40:30;;;;;;;1999.90;999.90;;;;;;;;;;4960906;28;20220;-67
2023/10/28 03:43:15;;;;;;;1999.90;999.90;;;;;;;;;;4953592;28;20611;-66
2023/10/28 03:46:00;;;;;;;1999.90;999.90;;;;;;;;;;4953535;28;20704;-67
2023/10/28 03:48:45;;;;;;;1999.90;999.90;;;;;;;;;;4952976;28;20232;-66
2023/10/28 03:51:30;;;;;;;1999.90;999.90;;;;;;;;;;4951629;28;20492;-67
2023/10/28 03:54:15;;;;;;;1999.90;999.90;;;;;;;;;;4950858;28;20728;-66
2023/10/28 03:57:01;;;;;;;1999.90;999.90;;;;;;;;;;4953437;28;20217;-64
2023/10/28 03:59:48;;;;;;;1999.90;999.90;;;;;;;;;;4955458;28;20252;-63
2023/10/28 04:02:33;;;;;;;1999.90;999.90;;;;;;;;;;4961027;28;20611;-66
2023/10/28 04:05:19;;;;;;;1999.90;999.90;;;;;;;;;;4962766;28;20207;-66
2023/10/28 04:08:05;;;;;;;1999.90;999.90;;;;;;;;;;4949446;28;20263;-64
2023/10/28 04:10:50;;;;;;;1999.90;999.90;;;;;;;;;;4956595;28;20340;-66
2023/10/28 04:13:36;;;;;;;1999.90;999.90;;;;;;;;;;4964739;28;20311;-66
2023/10/28 04:16:21;;;;;;;1999.90;999.90;;;;;;;;;;4951456;28;20213;-66
2023/10/28 04:19:06;;;;;;;1999.90;999.90;;;;;;;;;;4964803;28;20741;-67
2023/10/28 04:21:51;;;;;;;1999.90;999.90;;;;;;;;;;4956530;28;20280;-65
2023/10/28 04:24:36;;;;;;;1999.90;999.90;;;;;;;;;;4966733;28;20256;-66
2023/10/28 04:27:21;;;;;;;1999.90;999.90;;;;;;;;;;4959102;28;20204;-66
2023/10/28 04:30:10;;;;;;;1999.90;999.90;;;;;;;;;;4954940;28;20295;-67
2023/10/28 04:32:56;;;;;;;1999.90;999.90;;;;;;;;;;4963264;28;20812;-66
2023/10/28 04:35:43;;;;;;;1999.90;999.90;;;;;;;;;;4970390;28;20255;-66
2023/10/28 04:38:29;;;;;;;1999.90;999.90;;;;;;;;;;4957069;28;20573;-64
2023/10/28 04:41:14;;;;;;;1999.90;999.90;;;;;;;;;;4974651;28;20211;-66
2023/10/28 04:43:59;;;;;;;1999.90;999.90;;;;;;;;;;4949511;28;20292;-67
2023/10/28 04:46:45;;;;;;;1999.90;999.90;;;;;;;;;;4970012;28;20216;-66
2023/10/28 04:49:30;;;;;;;1999.90;999.90;;;;;;;;;;4957893;28;20431;-65
2023/10/28 04:52:15;;;;;;;1999.90;999.90;;;;;;;;;;4959245;28;20840;-66
2023/10/28 04:55:00;;;;;;;1999.90;999.90;;;;;;;;;;4963857;28;20763;-66
2023/10/28 04:57:45;;;;;;;1999.90;999.90;;;;;;;;;;4957590;28;20581;-66
2023/10/28 05:00:30;;;;;;;1999.90;999.90;;;;;;;;;;4955418;28;20221;-66
2023/10/28 05:03:16;;;;;;;1999.90;999.90;;;;;;;;;;4955952;28;20233;-66
2023/10/28 05:06:01;;;;;;;1999.90;999.90;;;;;;;;;;4958213;28;20280;-67
2023/10/28 05:08:47;;;;;;;1999.90;999.90;;;;;;;;;;4961944;28;20619;-67
2023/10/28 05:11:32;;;;;;;1999.90;999.90;;;;;;;;;;4964977;28;20444;-67
2023/10/28 05:14:17;;;;;;;1999.90;999.90;;;;;;;;;;4953507;28;20216;-66
2023/10/28 05:17:02;;;;;;;1999.90;999.90;;;;;;;;;;4960383;28;20580;-66
2023/10/28 05:19:48;;;;;;;1999.90;999.90;;;;;;;;;;4958557;28;20264;-67
2023/10/28 05:22:34;;;;;;;1999.90;999.90;;;;;;;;;;4959207;28;20244;-66
2023/10/28 05:25:19;;;;;;;1999.90;999.90;;;;;;;;;;4949168;28;20288;-66
2023/10/28 05:28:04;;;;;;;1999.90;999.90;;;;;;;;;;4966239;28;20228;-66
2023/10/28 05:30:49;;;;;;;1999.90;999.90;;;;;;;;;;4958018;28;20235;-67
2023/10/28 05:33:34;;;;;;;1999.90;999.90;;;;;;;;;;4955553;28;20841;-66
2023/10/28 05:36:21;;;;;;;1999.90;999.90;;;;;;;;;;4959252;28;20337;-66
2023/10/28 05:39:07;;;;;;;1999.90;999.90;;;;;;;;;;4965392;28;20377;-66
2023/10/28 05:41:52;;;;;;;1999.90;999.90;;;;;;;;;;4975004;28;20212;-66
2023/10/28 05:44:37;;;;;;;1999.90;999.90;;;;;;;;;;4974583;28;20208;-66
2023/10/28 05:47:22;;;;;;;1999.90;999.90;;;;;;;;;;4974880;28;20212;-67
2023/10/28 05:50:07;;;;;;;1999.90;999.90;;;;;;;;;;4974442;28;20211;-67
2023/10/28 05:52:54;;;;;;;1999.90;999.90;;;;;;;;;;4974525;28;20292;-67
2023/10/28 05:55:39;;;;;;;1999.90;999.90;;;;;;;;;;4974784;28;20217;-66
2023/10/28 05:58:24;;;;;;;1999.90;999.90;;;;;;;;;;4974427;28;20256;-67
2023/10/28 06:01:09;;;;;;;1999.90;999.90;;;;;;;;;;4958021;28;20209;-66
2023/10/28 06:03:53;;;;;;;1999.90;999.90;;;;;;;;;;4952661;28;20236;-65
2023/10/28 06:06:39;;;;;;;1999.90;999.90;;;;;;;;;;4950769;28;20212;-67
2023/10/28 06:09:25;;;;;;;1999.90;999.90;;;;;;;;;;4953461;28;20475;-67
2023/10/28 06:12:13;;;;;;;1999.90;999.90;;;;;;;;;;4954626;28;20744;-65
2023/10/28 06:14:58;;;;;;;1999.90;999.90;;;;;;;;;;4954670;28;20664;-66
2023/10/28 06:17:45;;;;;;;1999.90;999.90;;;;;;;;;;4952549;28;20288;-66
2023/10/28 06:20:30;;;;;;;1999.90;999.90;;;;;;;;;;4948761;28;20221;-66
2023/10/28 06:23:15;;;;;;;1999.90;999.90;;;;;;;;;;4953909;28;20240;-66
2023/10/28 06:26:02;;;;;;;1999.90;999.90;;;;;;;;;;4956000;28;20224;-66
2023/10/28 06:28:47;;;;;;;1999.90;999.90;;;;;;;;;;4957136;28;20224;-64
2023/10/28 06:31:32;;;;;;;1999.90;999.90;;;;;;;;;;4950836;28;20565;-66
2023/10/28 06:34:18;;;;;;;1999.90;999.90;;;;;;;;;;4954309;28;20212;-66
2023/10/28 06:37:03;;;;;;;1999.90;999.90;;;;;;;;;;4953845;28;20244;-66
2023/10/28 06:39:47;;;;;;;1999.90;999.90;;;;;;;;;;4962078;28;20610;-66
2023/10/28 06:42:34;;;;;;;1999.90;999.90;;;;;;;;;;4954232;28;20401;-66
2023/10/28 06:45:19;;;;;;;1999.90;999.90;;;;;;;;;;4962081;28;20208;-66
2023/10/28 06:48:05;;;;;;;1999.90;999.90;;;;;;;;;;4946514;28;20871;-64
2023/10/28 06:50:50;;;;;;;1999.90;999.90;;;;;;;;;;4953951;28;20224;-66
2023/10/28 06:53:35;;;;;;;1999.90;999.90;;;;;;;;;;4954177;28;20286;-64
2023/10/28 06:56:20;;;;;;;1999.90;999.90;;;;;;;;;;4957768;28;20212;-66
2023/10/28 06:59:06;;;;;;;1999.90;999.90;;;;;;;;;;4966831;28;20340;-66
2023/10/28 07:01:51;;;;;;;1999.90;999.90;;;;;;;;;;4961490;28;20244;-67
2023/10/28 07:04:36;;;;;;;1999.90;999.90;;;;;;;;;;4952302;28;20689;-67
2023/10/28 07:07:21;;;;;;;1999.90;999.90;;;;;;;;;;4953782;28;20732;-67
2023/10/28 07:10:07;;;;;;;1999.90;999.90;;;;;;;;;;4951808;28;20349;-67
2023/10/28 07:12:52;;;;;;;1999.90;999.90;;;;;;;;;;4951996;28;20605;-67
2023/10/28 07:15:38;;;;;;;1999.90;999.90;;;;;;;;;;4953875;28;20219;-66
2023/10/28 07:18:23;;;;;;;1999.90;999.90;;;;;;;;;;4965647;28;20687;-66
2023/10/28 07:21:08;;;;;;;1999.90;999.90;;;;;;;;;;4965063;28;20209;-66
2023/10/28 07:23:52;;;;;;;1999.90;999.90;;;;;;;;;;4970663;28;20250;-67
2023/10/28 07:26:38;;;;;;;1999.90;999.90;;;;;;;;;;4955123;28;20109;-67
2023/10/28 07:29:23;;;;;;;1999.90;999.90;;;;;;;;;;4945576;28;20296;-67
2023/10/28 07:32:10;;;;;;;1999.90;999.90;;;;;;;;;;4953415;28;20237;-67
2023/10/28 07:34:54;;;;;;;1999.90;999.90;;;;;;;;;;4954593;28;20272;-67
2023/10/28 07:37:39;;;;;;;1999.90;999.90;;;;;;;;;;4956678;28;20307;-67
2023/10/28 07:40:24;;;;;;;1999.90;999.90;;;;;;;;;;4955851;28;20740;-67
2023/10/28 07:43:11;;;;;;;1999.90;999.90;;;;;;;;;;4962599;28;20276;-67
2023/10/28 07:45:56;;;;;;;1999.90;999.90;;;;;;;;;;4957436;28;20677;-67
2023/10/28 07:48:42;;;;;;;1999.90;999.90;;;;;;;;;;4959643;28;20287;-67
2023/10/28 07:51:27;;;;;;;1999.90;999.90;;;;;;;;;;4963424;28;20402;-66
2023/10/28 07:54:12;;;;;;;1999.90;999.90;;;;;;;;;;4973612;28;21927;-67
2023/10/28 07:56:58;;;;;;;1999.90;999.90;;;;;;;;;;4968536;28;20899;-68
2023/10/28 07:59:43;;;;;;;1999.90;999.90;;;;;;;;;;4970299;28;20634;-66
2023/10/28 08:02:28;;;;;;;1999.90;999.90;;;;;;;;;;4950048;28;20223;-68
2023/10/28 08:05:14;;;;;;;1999.90;999.90;;;;;;;;;;4956915;28;20289;-68
2023/10/28 08:08:00;;;;;;;1999.90;999.90;;;;;;;;;;4956801;28;20583;-67
2023/10/28 08:10:45;;;;;;;1999.90;999.90;;;;;;;;;;4956732;28;20738;-68
2023/10/28 08:13:30;;;;;;;1999.90;999.90;;;;;;;;;;4956622;28;20225;-67
2023/10/28 08:16:18;;;;;;;1999.90;999.90;;;;;;;;;;4956858;28;20582;-66
2023/10/28 08:19:04;;;;;;;1999.90;999.90;;;;;;;;;;4956347;28;20332;-67
2023/10/28 08:21:51;;;;;;;1999.90;999.90;;;;;;;;;;4956355;28;20240;-67
2023/10/28 08:24:35;;;;;;;1999.90;999.90;;;;;;;;;;4956783;28;20757;-66
2023/10/28 08:27:20;;;;;;;1999.90;999.90;;;;;;;;;;4956502;28;20580;-66
2023/10/28 08:30:07;;;;;;;1999.90;999.90;;;;;;;;;;4962554;28;20232;-67
2023/10/28 08:32:52;;;;;;;1999.90;999.90;;;;;;;;;;4967922;28;20231;-67
2023/10/28 08:35:37;;;;;;;1999.90;999.90;;;;;;;;;;4956987;28;20243;-66
2023/10/28 08:38:23;;;;;;;1999.90;999.90;;;;;;;;;;4964215;28;20694;-66
2023/10/28 08:41:08;;;;;;;1999.90;999.90;;;;;;;;;;4959293;28;20209;-67
2023/10/28 08:43:53;;;;;;;1999.90;999.90;;;;;;;;;;4956114;28;20605;-67
2023/10/28 08:46:39;;;;;;;1999.90;999.90;;;;;;;;;;4960248;28;20439;-66
2023/10/28 08:49:24;;;;;;;1999.90;999.90;;;;;;;;;;4955322;28;20230;-67
2023/10/28 08:52:10;;;;;;;1999.90;999.90;;;;;;;;;;4956035;28;20296;-67
2023/10/28 08:54:59;;;;;;;1999.90;999.90;;;;;;;;;;4956162;28;20220;-67
2023/10/28 08:57:46;;;;;;;1999.90;999.90;;;;;;;;;;4956279;28;20338;-66
2023/10/28 09:00:31;;;;;;;1999.90;999.90;;;;;;;;;;4955827;28;20249;-67
2023/10/28 09:03:17;;;;;;;1999.90;999.90;;;;;;;;;;4955611;28;20246;-66
2023/10/28 09:06:02;;;;;;;1999.90;999.90;;;;;;;;;;4956002;28;20218;-68
2023/10/28 09:08:49;;;;;;;1999.90;999.90;;;;;;;;;;4949228;28;20408;-68
2023/10/28 09:11:36;;;;;;;1999.90;999.90;;;;;;;;;;4956101;28;20226;-69
2023/10/28 09:14:21;;;;;;;1999.90;999.90;;;;;;;;;;4955843;28;20346;-68
2023/10/28 09:17:06;;;;;;;1999.90;999.90;;;;;;;;;;4955703;28;20255;-69
2023/10/28 09:19:51;;;;;;;1999.90;999.90;;;;;;;;;;4955629;28;20225;-69
2023/10/28 09:22:37;;;;;;;1999.90;999.90;;;;;;;;;;4955290;28;20252;-68
2023/10/28 09:25:22;;;;;;;1999.90;999.90;;;;;;;;;;4955663;28;20275;-68
2023/10/28 09:28:16;;;;;;;1999.90;999.90;;;;;;;;;;4955651;28;20226;-68
2023/10/28 09:31:01;;;;;;;1999.90;999.90;;;;;;;;;;4955225;28;20358;-69
2023/10/28 09:33:47;;;;;;;1999.90;999.90;;;;;;;;;;4956586;28;20734;-68
2023/10/28 09:36:33;;;;;;;1999.90;999.90;;;;;;;;;;4958869;28;20222;-69
2023/10/28 09:39:18;;;;;;;1999.90;999.90;;;;;;;;;;4957022;28;20221;-69
2023/10/28 09:42:03;;;;;;;1999.90;999.90;;;;;;;;;;4955183;28;20813;-68
2023/10/28 09:44:51;;;;;;;1999.90;999.90;;;;;;;;;;4955255;28;20210;-68
2023/10/28 09:47:41;;;;;;;1999.90;999.90;;;;;;;;;;4947601;28;20641;-69
2023/10/28 09:50:29;;;;;;;1999.90;999.90;;;;;;;;;;4962584;28;20230;-68
2023/10/28 09:53:16;;;;;;;1999.90;999.90;;;;;;;;;;4962825;28;20353;-68
2023/10/28 09:56:02;;;;;;;1999.90;999.90;;;;;;;;;;4962031;28;20238;-68
2023/10/28 09:58:51;;;;;;;1999.90;999.90;;;;;;;;;;4947984;28;20218;-68
2023/10/28 10:01:40;;;;;;;1999.90;999.90;;;;;;;;;;4955013;28;20588;-68
2023/10/28 10:04:30;;;;;;;1999.90;999.90;;;;;;;;;;4954481;28;20763;-69
2023/10/28 10:07:16;;;;;;;1999.90;999.90;;;;;;;;;;4962611;28;20218;-69
2023/10/28 10:10:06;;;;;;;1999.90;999.90;;;;;;;;;;4950115;28;20242;-69
2023/10/28 10:13:01;;;;;;;1999.90;999.90;;;;;;;;;;4954703;28;20237;-68
2023/10/28 10:15:52;;;;;;;1999.90;999.90;;;;;;;;;;4956206;28;20211;-66
2023/10/28 10:18:40;;;;;;;1999.90;999.90;;;;;;;;;;4953895;28;20214;-68
2023/10/28 10:21:30;;;;;;;1999.90;999.90;;;;;;;;;;4963680;28;20231;-68
2023/10/28 10:24:17;;;;;;;1999.90;999.90;;;;;;;;;;4949364;28;20223;-67
2023/10/28 10:27:03;;;;;;;1999.90;999.90;;;;;;;;;;4953026;28;20600;-67
2023/10/28 10:29:51;;;;;;;1999.90;999.90;;;;;;;;;;4965551;28;20249;-68
2023/10/28 10:32:45;;;;;;;1999.90;999.90;;;;;;;;;;4959668;28;20242;-67
2023/10/28 10:35:32;;;;;;;1999.90;999.90;;;;;;;;;;4951359;28;20216;-66
2023/10/28 10:38:27;;;;;;;1999.90;999.90;;;;;;;;;;4953343;28;20214;-68
2023/10/28 10:41:12;;;;;;;1999.90;999.90;;;;;;;;;;4955014;28;20819;-67
2023/10/28 10:44:17;;;;;;;1999.90;999.90;;;;;;;;;;4954588;28;20366;-67
2023/10/28 10:47:03;;;;;;;1999.90;999.90;;;;;;;;;;4949554;28;20747;-67
2023/10/28 10:49:49;;;;;;;1999.90;999.90;;;;;;;;;;4946734;28;20227;-67
2023/10/28 10:52:36;;;;;;;1999.90;999.90;;;;;;;;;;4956532;28;20245;-68
2023/10/28 10:55:22;;;;;;;1999.90;999.90;;;;;;;;;;4965766;28;20214;-67
2023/10/28 10:58:07;;;;;;;1999.90;999.90;;;;;;;;;;4969016;28;20362;-67
2023/10/28 11:00:54;;;;;;;1999.90;999.90;;;;;;;;;;4951825;28;20215;-67
2023/10/28 11:03:39;;;;;;;1999.90;999.90;;;;;;;;;;4959674;28;20711;-68
2023/10/28 11:06:24;;;;;;;1999.90;999.90;;;;;;;;;;4965127;28;20230;-67
2023/10/28 11:09:15;;;;;;;1999.90;999.90;;;;;;;;;;4956665;28;20343;-67
2023/10/28 11:12:00;;;;;;;1999.90;999.90;;;;;;;;;;4952869;28;20708;-66
2023/10/28 11:14:47;;;;;;;1999.90;999.90;;;;;;;;;;4949680;28;20215;-67
2023/10/28 11:17:32;;;;;;;1999.90;999.90;;;;;;;;;;4962134;28;20282;-67
2023/10/28 11:20:19;;;;;;;1999.90;999.90;;;;;;;;;;4962086;28;20752;-67
2023/10/28 11:23:04;;;;;;;1999.90;999.90;;;;;;;;;;4968390;28;20371;-67
2023/10/28 11:25:51;;;;;;;1999.90;999.90;;;;;;;;;;4952475;28;20330;-66
2023/10/28 11:28:38;;;;;;;1999.90;999.90;;;;;;;;;;4961795;28;20327;-67
2023/10/28 11:31:24;;;;;;;1999.90;999.90;;;;;;;;;;4960188;28;20247;-67
2023/10/28 11:34:09;;;;;;;1999.90;999.90;;;;;;;;;;4952270;28;20874;-68
2023/10/28 11:36:55;;;;;;;1999.90;999.90;;;;;;;;;;4958353;28;20218;-67
2023/10/28 11:39:41;;;;;;;1999.90;999.90;;;;;;;;;;4954639;28;20674;-68
2023/10/28 11:42:27;;;;;;;1999.90;999.90;;;;;;;;;;4962152;28;20275;-68
2023/10/28 11:45:15;;;;;;;1999.90;999.90;;;;;;;;;;4957485;28;20247;-68
2023/10/28 11:48:00;;;;;;;1999.90;999.90;;;;;;;;;;4951048;29;20293;-68
2023/10/28 11:50:45;;;;;;;1999.90;999.90;;;;;;;;;;4958917;28;20418;-68
2023/10/28 11:53:30;;;;;;;1999.90;999.90;;;;;;;;;;4959488;28;20247;-67
2023/10/28 11:56:16;;;;;;;1999.90;999.90;;;;;;;;;;4954534;28;20291;-67
2023/10/28 11:59:02;;;;;;;1999.90;999.90;;;;;;;;;;4951796;28;20303;-68
2023/10/28 12:01:47;;;;;;;1999.90;999.90;;;;;;;;;;4952784;28;20242;-67
2023/10/28 12:04:32;;;;;;;1999.90;999.90;;;;;;;;;;4961119;28;20583;-68
2023/10/28 12:07:17;;;;;;;1999.90;999.90;;;;;;;;;;4962591;28;20228;-67
2023/10/28 12:10:06;;;;;;;1999.90;999.90;;;;;;;;;;4953058;29;20681;-67
2023/10/28 12:12:51;;;;;;;1999.90;999.90;;;;;;;;;;4959024;28;20227;-67
2023/10/28 12:15:38;;;;;;;1999.90;999.90;;;;;;;;;;4964677;28;20222;-68
2023/10/28 12:18:23;;;;;;;1999.90;999.90;;;;;;;;;;4952473;28;20215;-67
2023/10/28 12:21:09;;;;;;;1999.90;999.90;;;;;;;;;;4953193;28;20329;-67
2023/10/28 12:23:54;;;;;;;1999.90;999.90;;;;;;;;;;4952794;28;20316;-67
2023/10/28 12:26:39;;;;;;;1999.90;999.90;;;;;;;;;;4960662;28;20276;-67
2023/10/28 12:29:25;;;;;;;1999.90;999.90;;;;;;;;;;4956472;28;20764;-67
2023/10/28 12:32:11;;;;;;;1999.90;999.90;;;;;;;;;;4967996;28;20593;-68
2023/10/28 12:34:56;;;;;;;1999.90;999.90;;;;;;;;;;4965406;28;20677;-67
2023/10/28 12:37:41;;;;;;;1999.90;999.90;;;;;;;;;;4967133;28;20210;-67
2023/10/28 12:40:26;;;;;;;1999.90;999.90;;;;;;;;;;4975938;28;20227;-68
2023/10/28 12:43:11;;;;;;;1999.90;999.90;;;;;;;;;;4975564;28;20313;-67
2023/10/28 12:45:56;;;;;;;1999.90;999.90;;;;;;;;;;4975862;28;20775;-67
2023/10/28 12:48:42;;;;;;;1999.90;999.90;;;;;;;;;;4975622;28;20211;-67
2023/10/28 12:51:28;;;;;;;1999.90;999.90;;;;;;;;;;4975573;28;20511;-66
2023/10/28 12:54:13;;;;;;;1999.90;999.90;;;;;;;;;;4975494;28;20204;-68
2023/10/28 12:56:58;;;;;;;1999.90;999.90;;;;;;;;;;4975651;28;20215;-68
2023/10/28 12:59:46;;;;;;;1999.90;999.90;;;;;;;;;;4975495;28;20207;-67
2023/10/28 13:02:32;;;;;;;1999.90;999.90;;;;;;;;;;4975622;28;20235;-68
2023/10/28 13:05:19;;;;;;;1999.90;999.90;;;;;;;;;;4975502;28;20219;-68
2023/10/28 13:08:03;;;;;;;1999.90;999.90;;;;;;;;;;4975506;28;20215;-68
2023/10/28 13:10:48;;;;;;;1999.90;999.90;;;;;;;;;;4973719;28;20539;-68
2023/10/28 13:13:33;;;;;;;1999.90;999.90;;;;;;;;;;4975396;28;20226;-67
2023/10/28 13:16:18;;;;;;;1999.90;999.90;;;;;;;;;;4975340;28;20204;-68
2023/10/28 13:19:03;;;;;;;1999.90;999.90;;;;;;;;;;4975285;28;20212;-67
2023/10/28 13:21:50;;;;;;;1999.90;999.90;;;;;;;;;;4975152;28;20584;-68
2023/10/28 13:24:35;;;;;;;1999.90;999.90;;;;;;;;;;4975395;28;20705;-68
2023/10/28 13:27:20;;;;;;;1999.90;999.90;;;;;;;;;;4975126;28;20300;-67
2023/10/28 13:30:07;;;;;;;1999.90;999.90;;;;;;;;;;4974869;28;20211;-68
2023/10/28 13:32:52;;;;;;;1999.90;999.90;;;;;;;;;;4974946;28;20362;-67
2023/10/28 13:35:37;;;;;;;1999.90;999.90;;;;;;;;;;4975027;28;20203;-67
2023/10/28 13:38:24;;;;;;;1999.90;999.90;;;;;;;;;;4974988;28;20332;-67
2023/10/28 13:41:10;;;;;;;1999.90;999.90;;;;;;;;;;4974882;28;20207;-67
2023/10/28 13:43:55;;;;;;;1999.90;999.90;;;;;;;;;;4974965;28;20222;-68
2023/10/28 13:46:40;;;;;;;1999.90;999.90;;;;;;;;;;4974826;28;20207;-67
2023/10/28 13:49:25;;;;;;;1999.90;999.90;;;;;;;;;;4974845;28;20212;-67
2023/10/28 13:52:10;;;;;;;1999.90;999.90;;;;;;;;;;4974544;28;20339;-68
2023/10/28 13:54:57;;;;;;;1999.90;999.90;;;;;;;;;;4974613;28;20589;-68
2023/10/28 13:57:41;;;;;;;1999.90;999.90;;;;;;;;;;4974874;28;20287;-68
2023/10/28 14:00:26;;;;;;;1999.90;999.90;;;;;;;;;;4974719;28;20203;-68
2023/10/28 14:03:14;;;;;;;1999.90;999.90;;;;;;;;;;4974418;28;20224;-67
2023/10/28 14:06:02;;;;;;;1999.90;999.90;;;;;;;;;;4974589;28;20201;-68
2023/10/28 14:08:47;;;;;;;1999.90;999.90;;;;;;;;;;4974129;28;20216;-68
2023/10/28 14:11:33;;;;;;;1999.90;999.90;;;;;;;;;;4974111;28;20219;-67
2023/10/28 14:14:19;;;;;;;1999.90;999.90;;;;;;;;;;4974377;28;20298;-67
2023/10/28 14:17:05;;;;;;;1999.90;999.90;;;;;;;;;;4974264;28;20207;-67
2023/10/28 14:19:50;;;;;;;1999.90;999.90;;;;;;;;;;4973938;28;20290;-68
2023/10/28 14:22:35;;;;;;;1999.90;999.90;;;;;;;;;;4973920;28;20251;-67
2023/10/28 14:25:20;;;;;;;1999.90;999.90;;;;;;;;;;4974100;28;20630;-68
2023/10/28 14:28:07;;;;;;;1999.90;999.90;;;;;;;;;;4973797;28;20411;-68
2023/10/28 14:30:52;;;;;;;1999.90;999.90;;;;;;;;;;4973437;28;20291;-68
2023/10/28 14:33:36;;;;;;;1999.90;999.90;;;;;;;;;;4973869;28;20307;-68
2023/10/28 14:36:21;;;;;;;1999.90;999.90;;;;;;;;;;4973847;28;20223;-68
2023/10/28 14:39:06;;;;;;;1999.90;999.90;;;;;;;;;;4973715;28;20211;-67
2023/10/28 14:41:51;;;;;;;1999.90;999.90;;;;;;;;;;4973516;28;20255;-67
2023/10/28 14:44:37;;;;;;;1999.90;999.90;;;;;;;;;;4973150;28;20208;-68
2023/10/28 14:47:22;;;;;;;1999.90;999.90;;;;;;;;;;4973648;28;20231;-68
2023/10/28 14:50:07;;;;;;;1999.90;999.90;;;;;;;;;;4973489;28;20207;-66
2023/10/28 14:52:52;;;;;;;1999.90;999.90;;;;;;;;;;4973499;28;20219;-67
2023/10/28 14:55:37;;;;;;;1999.90;999.90;;;;;;;;;;4973552;28;20207;-68
2023/10/28 14:58:22;;;;;;;1999.90;999.90;;;;;;;;;;4973622;28;20604;-68
2023/10/28 15:01:08;;;;;;;1999.90;999.90;;;;;;;;;;4973530;28;20199;-66
2023/10/28 15:03:53;;;;;;;1999.90;999.90;;;;;;;;;;4973311;28;20227;-67
2023/10/28 15:06:38;;;;;;;1999.90;999.90;;;;;;;;;;4973403;28;20354;-68
2023/10/28 15:09:25;;;;;;;1999.90;999.90;;;;;;;;;;4973551;28;20211;-68
2023/10/28 15:12:10;;;;;;;1999.90;999.90;;;;;;;;;;4973787;28;20622;-67
2023/10/28 15:14:55;;;;;;;1999.90;999.90;;;;;;;;;;4973065;28;20316;-68
2023/10/28 15:17:41;;;;;;;1999.90;999.90;;;;;;;;;;4973403;28;20207;-68
2023/10/28 15:20:28;;;;;;;1999.90;999.90;;;;;;;;;;4973153;28;20215;-68
2023/10/28 15:23:13;;;;;;;1999.90;999.90;;;;;;;;;;4972966;28;20242;-67
2023/10/28 15:25:58;;;;;;;1999.90;999.90;;;;;;;;;;4972133;28;20418;-67
2023/10/28 15:28:43;;;;;;;1999.90;999.90;;;;;;;;;;4973007;28;20214;-68
2023/10/28 15:31:29;;;;;;;1999.90;999.90;;;;;;;;;;4973108;28;20275;-68
2023/10/28 15:34:15;;;;;;;1999.90;999.90;;;;;;;;;;4973156;28;20781;-68
2023/10/28 15:37:00;;;;;;;1999.90;999.90;;;;;;;;;;4972900;28;20207;-68
2023/10/28 15:39:45;;;;;;;1999.90;999.90;;;;;;;;;;4972856;28;20824;-68
2023/10/28 15:42:30;;;;;;;1999.90;999.90;;;;;;;;;;4973048;28;20250;-67
2023/10/28 15:45:15;;;;;;;1999.90;999.90;;;;;;;;;;4973099;28;20719;-65
2023/10/28 15:48:00;;;;;;;1999.90;999.90;;;;;;;;;;4972488;28;20538;-68
2023/10/28 15:50:47;;;;;;;1999.90;999.90;;;;;;;;;;4972868;28;20287;-66
2023/10/28 15:53:34;;;;;;;1999.90;999.90;;;;;;;;;;4972777;28;20739;-67
2023/10/28 15:56:22;;;;;;;1999.90;999.90;;;;;;;;;;4974721;28;20766;-67
2023/10/28 15:59:07;;;;;;;1999.90;999.90;;;;;;;;;;4976631;28;20210;-67
2023/10/28 16:01:52;;;;;;;1999.90;999.90;;;;;;;;;;4977185;28;20207;-67
2023/10/28 16:04:37;;;;;;;1999.90;999.90;;;;;;;;;;4977993;28;20215;-68
2023/10/28 16:07:23;;;;;;;1999.90;999.90;;;;;;;;;;4977851;28;20202;-68
2023/10/28 16:10:08;;;;;;;1999.90;999.90;;;;;;;;;;4977322;28;20290;-68
2023/10/28 16:12:53;;;;;;;1999.90;999.90;;;;;;;;;;4976368;28;20258;-68
2023/10/28 16:15:39;;;;;;;1999.90;999.90;;;;;;;;;;4976515;28;20638;-68
2023/10/28 16:18:24;;;;;;;1999.90;999.90;;;;;;;;;;4976217;28;20211;-68
2023/10/28 16:21:09;;;;;;;1999.90;999.90;;;;;;;;;;4976292;28;20346;-68
2023/10/28 16:23:55;;;;;;;1999.90;999.90;;;;;;;;;;4976126;28;20238;-68
2023/10/28 16:26:46;;;;;;;1999.90;999.90;;;;;;;;;;4976301;28;20202;-68
2023/10/28 16:29:31;;;;;;;1999.90;999.90;;;;;;;;;;4976030;28;20214;-68
2023/10/28 16:32:16;;;;;;;1999.90;999.90;;;;;;;;;;4975980;28;20236;-67
2023/10/28 16:35:02;;;;;;;1999.90;999.90;;;;;;;;;;4976242;28;20211;-68
2023/10/28 16:37:47;;;;;;;1999.90;999.90;;;;;;;;;;4976073;28;20779;-67
2023/10/28 16:40:35;;;;;;;1999.90;999.90;;;;;;;;;;4975851;28;20214;-68
2023/10/28 16:43:20;;;;;;;1999.90;999.90;;;;;;;;;;4975892;28;20290;-68
2023/10/28 16:46:05;;;;;;;1999.90;999.90;;;;;;;;;;4974568;28;20501;-68
2023/10/28 16:48:51;;;;;;;1999.90;999.90;;;;;;;;;;4975717;28;20211;-69
2023/10/28 16:51:38;;;;;;;1999.90;999.90;;;;;;;;;;4975725;28;20226;-68
2023/10/28 16:54:23;;;;;;;1999.90;999.90;;;;;;;;;;4975774;28;20206;-68
2023/10/28 16:57:09;;;;;;;1999.90;999.90;;;;;;;;;;4975962;28;20211;-68
2023/10/28 16:59:54;;;;;;;1999.90;999.90;;;;;;;;;;4975511;28;20204;-68
2023/10/28 17:02:39;;;;;;;1999.90;999.90;;;;;;;;;;4975648;28;20589;-68
2023/10/28 17:05:24;;;;;;;1999.90;999.90;;;;;;;;;;4975774;28;20754;-68
2023/10/28 17:08:09;;;;;;;1999.90;999.90;;;;;;;;;;4973810;28;20538;-68
2023/10/28 17:10:54;;;;;;;1999.90;999.90;;;;;;;;;;4975263;28;20322;-68
2023/10/28 17:13:40;;;;;;;1999.90;999.90;;;;;;;;;;4975297;28;20283;-68
2023/10/28 17:16:26;;;;;;;1999.90;999.90;;;;;;;;;;4975450;28;20482;-68
2023/10/28 17:19:11;;;;;;;1999.90;999.90;;;;;;;;;;4975454;28;20499;-68
2023/10/28 17:21:56;;;;;;;1999.90;999.90;;;;;;;;;;4975345;28;20210;-68
2023/10/28 17:24:41;;;;;;;1999.90;999.90;;;;;;;;;;4975250;28;20801;-69
2023/10/28 17:27:26;;;;;;;1999.90;999.90;;;;;;;;;;4974939;28;20203;-68
2023/10/28 17:30:13;;;;;;;1999.90;999.90;;;;;;;;;;4975003;28;20764;-69
2023/10/28 17:32:58;;;;;;;1999.90;999.90;;;;;;;;;;4974814;28;20237;-68
2023/10/28 17:35:43;;;;;;;1999.90;999.90;;;;;;;;;;4974705;28;20321;-68
2023/10/28 17:38:29;;;;;;;1999.90;999.90;;;;;;;;;;4974937;28;20340;-68
2023/10/28 17:41:15;;;;;;;1999.90;999.90;;;;;;;;;;4975028;28;20206;-68
2023/10/28 17:44:00;;;;;;;1999.90;999.90;;;;;;;;;;4974897;28;20232;-69
2023/10/28 17:46:48;;;;;;;1999.90;999.90;;;;;;;;;;4974854;28;21393;-68
2023/10/28 17:49:33;;;;;;;1999.90;999.90;;;;;;;;;;4974402;28;20209;-68
2023/10/28 17:52:18;;;;;;;1999.90;999.90;;;;;;;;;;4974587;28;20507;-68
2023/10/28 17:55:04;;;;;;;1999.90;999.90;;;;;;;;;;4974706;28;20248;-68
2023/10/28 17:57:50;;;;;;;1999.90;999.90;;;;;;;;;;4974680;28;20340;-68
2023/10/28 18:00:35;;;;;;;1999.90;999.90;;;;;;;;;;4974566;28;20205;-69
2023/10/28 18:03:24;;;;;;;1999.90;999.90;;;;;;;;;;4973979;28;20419;-68
2023/10/28 18:06:10;;;;;;;1999.90;999.90;;;;;;;;;;4974425;28;20220;-68
2023/10/28 18:08:55;;;;;;;1999.90;999.90;;;;;;;;;;4974287;28;20216;-68
2023/10/28 18:11:40;;;;;;;1999.90;999.90;;;;;;;;;;4974513;28;20220;-68
2023/10/28 18:14:25;;;;;;;1999.90;999.90;;;;;;;;;;4974376;28;20299;-70
2023/10/28 18:17:10;;;;;;;1999.90;999.90;;;;;;;;;;4974295;28;20228;-68
2023/10/28 18:19:56;;;;;;;1999.90;999.90;;;;;;;;;;4973372;28;20207;-68
2023/10/28 18:22:41;;;;;;;1999.90;999.90;;;;;;;;;;4974091;28;20232;-69
2023/10/28 18:25:26;;;;;;;1999.90;999.90;;;;;;;;;;4973767;28;20403;-69
2023/10/28 18:28:11;;;;;;;1999.90;999.90;;;;;;;;;;4974085;28;20495;-69
2023/10/28 18:30:59;;;;;;;1999.90;999.90;;;;;;;;;;4973833;28;20232;-68
2023/10/28 18:33:44;;;;;;;1999.90;999.90;;;;;;;;;;4974081;28;20228;-68
2023/10/28 18:36:30;;;;;;;1999.90;999.90;;;;;;;;;;4973948;28;20299;-68
2023/10/28 18:39:15;;;;;;;1999.90;999.90;;;;;;;;;;4973908;28;20770;-69
2023/10/28 18:42:00;;;;;;;1999.90;999.90;;;;;;;;;;4973788;28;20340;-68
2023/10/28 18:44:46;;;;;;;1999.90;999.90;;;;;;;;;;4964896;28;20212;-69
2023/10/28 18:47:33;;;;;;;1999.90;999.90;;;;;;;;;;4961283;28;20226;-69